createdAt,value
2019-05-21T00:02:07.708Z,84.54
2019-05-21T00:04:34.714Z,84.77
2019-05-21T00:07:02.231Z,84.78
2019-05-21T00:09:30.284Z,84.58
2019-05-21T00:11:57.319Z,84.96
2019-05-21T00:14:24.440Z,84.65
2019-05-21T00:16:51.836Z,84.68
2019-05-21T00:19:19.669Z,84.79
2019-05-21T00:21:46.675Z,85.12
2019-05-21T00:24:15.035Z,85.54
2019-05-21T00:26:42.223Z,85.47
2019-05-21T00:29:46.083Z,85.39
2019-05-21T00:32:49.906Z,85.53
2019-05-21T00:35:53.972Z,85.77
2019-05-21T00:38:58.041Z,85.41
2019-05-21T00:42:03.836Z,85.50
2019-05-21T00:44:34.505Z,85.56
2019-05-21T00:47:02.506Z,85.67
2019-05-21T00:49:29.556Z,85.92
2019-05-21T00:52:06.880Z,85.85
2019-05-21T00:54:25.480Z,85.97
2019-05-21T00:56:52.603Z,86.18
2019-05-21T00:59:19.893Z,86.03
2019-05-21T01:01:46.958Z,86.23
2019-05-21T01:04:14.013Z,86.25
2019-05-21T01:06:41.131Z,86.67
2019-05-21T01:09:08.146Z,86.74
2019-05-21T01:11:35.267Z,86.76
2019-05-21T01:14:02.428Z,86.74
2019-05-21T01:16:29.427Z,86.82
2019-05-21T01:18:56.516Z,86.76
2019-05-21T01:21:23.490Z,86.81
2019-05-21T01:23:50.489Z,86.75
2019-05-21T01:26:18.576Z,86.73
2019-05-21T01:28:45.618Z,86.86
2019-05-21T01:31:12.664Z,86.72
2019-05-21T01:33:39.727Z,86.79
2019-05-21T01:36:06.687Z,86.65
2019-05-21T01:38:33.680Z,86.70
2019-05-21T01:41:00.743Z,86.53
2019-05-21T01:43:28.055Z,86.57
2019-05-21T01:45:55.087Z,86.69
2019-05-21T01:48:22.092Z,86.56
2019-05-21T01:50:49.354Z,86.72
2019-05-21T01:53:16.437Z,86.69
2019-05-21T01:55:43.546Z,86.72
2019-05-21T01:58:11.799Z,86.61
2019-05-21T02:00:38.861Z,86.57
2019-05-21T02:03:05.847Z,86.48
2019-05-21T02:05:33.657Z,86.35
2019-05-21T02:08:00.789Z,86.30
2019-05-21T02:10:27.827Z,86.24
2019-05-21T02:12:54.813Z,86.36
2019-05-21T02:15:21.799Z,86.38
2019-05-21T02:17:48.846Z,86.26
2019-05-21T02:20:15.864Z,86.53
2019-05-21T02:22:42.953Z,86.14
2019-05-21T02:25:10.021Z,86.34
2019-05-21T02:27:37.046Z,86.38
2019-05-21T02:30:06.345Z,86.44
2019-05-21T02:32:34.140Z,86.42
2019-05-21T02:35:02.042Z,86.50
2019-05-21T02:37:29.122Z,86.45
2019-05-21T02:39:56.281Z,86.68
2019-05-21T02:42:23.294Z,86.68
2019-05-21T02:44:54.176Z,86.69
2019-05-21T02:47:20.551Z,86.72
2019-05-21T02:49:47.524Z,86.86
2019-05-21T02:52:14.525Z,86.88
2019-05-21T02:54:42.098Z,87.06
2019-05-21T02:57:09.225Z,87.07
2019-05-21T02:59:36.952Z,87.09
2019-05-21T03:02:13.392Z,87.15
2019-05-21T03:04:40.454Z,87.27
2019-05-21T03:07:19.635Z,87.19
2019-05-21T03:09:49.624Z,87.28
2019-05-21T03:12:16.806Z,87.30
2019-05-21T03:14:44.540Z,87.36
2019-05-21T03:17:11.544Z,87.30
2019-05-21T03:19:38.564Z,87.44
2019-05-21T03:22:05.626Z,87.63
2019-05-21T03:24:32.705Z,87.58
2019-05-21T03:26:59.703Z,87.45
2019-05-21T03:29:26.767Z,87.50
2019-05-21T03:31:53.773Z,87.42
2019-05-21T03:34:20.810Z,87.53
2019-05-21T03:36:47.921Z,87.42
2019-05-21T03:39:19.122Z,87.46
2019-05-21T03:41:43.855Z,87.52
2019-05-21T03:44:10.900Z,87.57
2019-05-21T03:46:37.988Z,87.58
2019-05-21T03:49:05.028Z,87.57
2019-05-21T03:51:32.249Z,87.76
2019-05-21T03:53:59.278Z,87.77
2019-05-21T03:56:26.272Z,88.13
2019-05-21T03:58:53.379Z,88.29
2019-05-21T04:01:20.460Z,88.39
2019-05-21T04:03:47.477Z,88.35
2019-05-21T04:06:15.296Z,88.44
2019-05-21T04:08:42.359Z,88.43
2019-05-21T04:11:09.426Z,88.30
2019-05-21T04:13:36.504Z,88.28
2019-05-21T04:16:13.188Z,88.23
2019-05-21T04:19:02.013Z,88.12
2019-05-21T04:21:29.015Z,88.24
2019-05-21T04:23:56.047Z,87.98
2019-05-21T04:26:23.161Z,87.93
2019-05-21T04:28:50.202Z,87.74
2019-05-21T04:31:17.199Z,87.78
2019-05-21T04:33:44.505Z,87.65
2019-05-21T04:36:11.572Z,87.25
2019-05-21T04:38:38.633Z,86.79
2019-05-21T04:41:05.748Z,86.43
2019-05-21T04:43:32.804Z,86.25
2019-05-21T04:45:59.910Z,86.31
2019-05-21T04:48:27.102Z,86.04
2019-05-21T04:50:54.169Z,86.06
2019-05-21T04:53:21.131Z,85.72
2019-05-21T04:55:48.344Z,85.50
2019-05-21T04:58:15.528Z,86.02
2019-05-21T05:00:42.751Z,85.97
2019-05-21T05:03:11.269Z,85.99
2019-05-21T05:05:38.314Z,86.31
2019-05-21T05:08:05.381Z,86.51
2019-05-21T05:10:32.602Z,86.97
2019-05-21T05:12:59.699Z,87.09
2019-05-21T05:15:26.750Z,87.45
2019-05-21T05:17:53.870Z,87.37
2019-05-21T05:20:20.881Z,87.25
2019-05-21T05:22:47.932Z,87.47
2019-05-21T05:25:14.996Z,87.66
2019-05-21T05:27:42.040Z,87.36
2019-05-21T05:30:10.037Z,87.44
2019-05-21T05:32:37.066Z,87.16
2019-05-21T05:35:04.313Z,86.88
2019-05-21T05:37:43.332Z,86.86
2019-05-21T05:40:00.281Z,86.87
2019-05-21T05:42:27.296Z,87.09
2019-05-21T05:44:54.367Z,87.26
2019-05-21T05:47:21.523Z,87.15
2019-05-21T05:49:51.370Z,87.04
2019-05-21T05:52:18.446Z,86.88
2019-05-21T05:54:45.480Z,86.85
2019-05-21T05:57:12.641Z,86.99
2019-05-21T05:59:39.813Z,86.98
2019-05-21T06:02:06.803Z,86.59
2019-05-21T06:04:33.787Z,86.53
2019-05-21T06:07:00.809Z,86.56
2019-05-21T06:09:27.879Z,86.36
2019-05-21T06:11:54.977Z,86.25
2019-05-21T06:14:22.010Z,86.34
2019-05-21T06:16:49.119Z,86.53
2019-05-21T06:19:16.172Z,86.37
2019-05-21T06:21:43.223Z,86.46
2019-05-21T06:24:13.460Z,86.47
2019-05-21T06:26:39.495Z,86.49
2019-05-21T06:29:06.520Z,86.29
2019-05-21T06:31:34.408Z,86.07
2019-05-21T06:34:01.628Z,85.66
2019-05-21T06:36:31.581Z,85.28
2019-05-21T06:38:59.616Z,85.89
2019-05-21T06:41:26.611Z,86.24
2019-05-21T06:43:53.789Z,86.50
2019-05-21T06:46:20.899Z,86.63
2019-05-21T06:48:48.027Z,86.35
2019-05-21T06:51:15.057Z,86.61
2019-05-21T06:53:42.175Z,86.80
2019-05-21T06:56:09.157Z,86.55
2019-05-21T06:58:37.953Z,86.89
2019-05-21T07:01:05.003Z,86.90
2019-05-21T07:03:32.015Z,86.78
2019-05-21T07:05:59.630Z,86.66
2019-05-21T07:08:34.451Z,86.46
2019-05-21T07:10:55.642Z,86.42
2019-05-21T07:13:22.654Z,86.36
2019-05-21T07:15:49.673Z,85.87
2019-05-21T07:18:16.687Z,85.97
2019-05-21T07:20:43.798Z,85.79
2019-05-21T07:23:10.876Z,85.60
2019-05-21T07:25:39.958Z,85.11
2019-05-21T07:28:06.961Z,85.31
2019-05-21T07:30:34.218Z,84.83
2019-05-21T07:33:01.473Z,84.84
2019-05-21T07:35:28.767Z,84.83
2019-05-21T07:37:55.855Z,84.49
2019-05-21T07:40:24.187Z,84.69
2019-05-21T07:42:51.238Z,84.37
2019-05-21T07:45:19.221Z,84.75
2019-05-21T07:47:46.259Z,85.30
2019-05-21T07:50:13.428Z,85.10
2019-05-21T07:52:40.713Z,84.77
2019-05-21T07:55:07.920Z,84.91
2019-05-21T07:57:44.411Z,84.92
2019-05-21T08:00:35.154Z,84.90
2019-05-21T08:03:02.412Z,84.21
2019-05-21T08:05:29.651Z,84.46
2019-05-21T08:07:57.410Z,84.84
2019-05-21T08:10:24.728Z,84.68
2019-05-21T08:12:52.040Z,84.86
2019-05-21T08:15:19.355Z,84.95
2019-05-21T08:17:46.825Z,85.03
2019-05-21T08:20:14.524Z,85.01
2019-05-21T08:22:41.772Z,84.66
2019-05-21T08:25:09.198Z,84.06
2019-05-21T08:27:36.388Z,84.40
2019-05-21T08:30:05.080Z,84.41
2019-05-21T08:32:32.667Z,83.96
2019-05-21T08:34:59.915Z,84.11
2019-05-21T08:37:27.129Z,84.64
2019-05-21T08:39:54.394Z,83.99
2019-05-21T08:42:21.681Z,83.53
2019-05-21T08:44:48.937Z,83.64
2019-05-21T08:47:16.413Z,83.61
2019-05-21T08:49:44.360Z,83.31
2019-05-21T08:52:12.020Z,82.85
2019-05-21T08:54:51.495Z,82.17
2019-05-21T08:57:19.071Z,82.97
2019-05-21T08:59:46.615Z,82.06
2019-05-21T09:02:13.940Z,81.76
2019-05-21T09:04:46.281Z,82.27
2019-05-21T09:07:11.020Z,82.45
2019-05-21T09:09:49.952Z,82.23
2019-05-21T09:12:09.230Z,81.94
2019-05-21T09:14:36.939Z,81.53
2019-05-21T09:17:04.314Z,81.98
2019-05-21T09:19:36.627Z,81.79
2019-05-21T09:22:04.131Z,82.56
2019-05-21T09:24:31.755Z,81.97
2019-05-21T09:26:59.677Z,81.64
2019-05-21T09:29:27.009Z,81.25
2019-05-21T09:31:55.312Z,81.22
2019-05-21T09:34:22.538Z,81.52
2019-05-21T09:36:49.889Z,81.30
2019-05-21T09:39:17.177Z,81.52
2019-05-21T09:41:44.440Z,80.51
2019-05-21T09:44:11.779Z,81.06
2019-05-21T09:46:39.111Z,81.05
2019-05-21T09:49:06.595Z,81.29
2019-05-21T09:51:34.196Z,79.68
2019-05-21T09:54:02.574Z,80.29
2019-05-21T09:56:33.207Z,80.38
2019-05-21T09:59:09.712Z,80.46
2019-05-21T10:01:47.469Z,81.85
2019-05-21T10:04:12.079Z,81.84
2019-05-21T10:06:39.415Z,82.09
2019-05-21T10:09:11.443Z,82.36
2019-05-21T10:11:38.673Z,81.88
2019-05-21T10:14:06.120Z,81.79
2019-05-21T10:16:33.563Z,81.51
2019-05-21T10:19:00.841Z,81.91
2019-05-21T10:21:29.090Z,81.70
2019-05-21T10:23:56.348Z,81.47
2019-05-21T10:26:23.786Z,81.24
2019-05-21T10:28:54.087Z,81.37
2019-05-21T10:31:21.395Z,79.92
2019-05-21T10:33:48.696Z,80.56
2019-05-21T10:36:15.986Z,80.30
2019-05-21T10:38:43.274Z,79.78
2019-05-21T10:41:10.801Z,78.81
2019-05-21T10:43:38.202Z,79.09
2019-05-21T10:46:05.969Z,78.42
2019-05-21T10:48:33.452Z,78.76
2019-05-21T10:51:00.715Z,77.92
2019-05-21T10:53:28.349Z,78.81
2019-05-21T10:55:55.844Z,78.19
2019-05-21T10:58:23.152Z,78.13
2019-05-21T11:00:52.707Z,78.97
2019-05-21T11:03:39.629Z,79.10
2019-05-21T11:06:10.525Z,79.83
2019-05-21T11:08:42.314Z,80.43
2019-05-21T11:11:09.668Z,79.92
2019-05-21T11:13:37.254Z,80.24
2019-05-21T11:16:08.670Z,78.95
2019-05-21T11:18:36.301Z,79.13
2019-05-21T11:21:03.741Z,77.99
2019-05-21T11:23:32.079Z,77.43
2019-05-21T11:25:59.300Z,76.69
2019-05-21T11:28:28.109Z,76.80
2019-05-21T11:30:55.525Z,76.67
2019-05-21T11:33:23.064Z,76.65
2019-05-21T11:35:50.406Z,77.96
2019-05-21T11:38:17.770Z,78.91
2019-05-21T11:40:50.571Z,78.08
2019-05-21T11:43:14.393Z,78.89
2019-05-21T11:45:41.881Z,79.60
2019-05-21T11:48:09.714Z,78.94
2019-05-21T11:50:37.291Z,80.63
2019-05-21T11:53:04.627Z,79.53
2019-05-21T11:55:32.696Z,80.56
2019-05-21T11:57:59.988Z,81.01
2019-05-21T12:00:28.886Z,80.84
2019-05-21T12:02:56.414Z,81.92
2019-05-21T12:05:24.699Z,81.61
2019-05-21T12:07:53.147Z,80.84
2019-05-21T12:10:22.263Z,81.28
2019-05-21T12:12:49.905Z,81.33
2019-05-21T12:15:18.303Z,82.09
2019-05-21T12:17:46.087Z,81.45
2019-05-21T12:20:15.500Z,81.80
2019-05-21T12:22:43.741Z,81.02
2019-05-21T12:25:14.292Z,80.84
2019-05-21T12:27:45.448Z,81.28
2019-05-21T12:30:14.842Z,80.50
2019-05-21T12:32:47.170Z,80.35
2019-05-21T12:35:18.866Z,80.45
2019-05-21T12:37:46.963Z,80.67
2019-05-21T12:40:16.172Z,81.26
2019-05-21T12:42:43.530Z,80.65
2019-05-21T12:45:12.461Z,80.66
2019-05-21T12:47:39.904Z,80.67
2019-05-21T12:50:08.764Z,80.78
2019-05-21T12:52:36.126Z,81.75
2019-05-21T12:55:04.062Z,80.47
2019-05-21T12:57:31.482Z,80.09
2019-05-21T13:00:02.254Z,80.08
2019-05-21T13:02:31.180Z,80.79
2019-05-21T13:04:58.454Z,80.37
2019-05-21T13:07:26.902Z,80.89
2019-05-21T13:09:54.242Z,80.58
2019-05-21T13:12:21.560Z,79.88
2019-05-21T13:14:49.987Z,80.69
2019-05-21T13:17:19.613Z,78.85
2019-05-21T13:19:46.943Z,79.33
2019-05-21T13:22:14.244Z,78.69
2019-05-21T13:24:42.573Z,79.23
2019-05-21T13:27:10.741Z,79.13
2019-05-21T13:29:38.121Z,79.27
2019-05-21T13:32:08.576Z,79.37
2019-05-21T13:34:35.777Z,79.77
2019-05-21T13:37:03.319Z,79.21
2019-05-21T13:39:30.629Z,79.49
2019-05-21T13:41:58.054Z,79.60
2019-05-21T13:44:25.406Z,79.47
2019-05-21T13:46:52.629Z,79.53
2019-05-21T13:49:19.991Z,78.76
2019-05-21T13:51:47.807Z,78.84
2019-05-21T13:54:15.062Z,77.60
2019-05-21T13:56:43.485Z,77.81
2019-05-21T13:59:12.643Z,77.48
2019-05-21T14:01:54.665Z,78.43
2019-05-21T14:04:25.967Z,78.18
2019-05-21T14:06:54.945Z,78.03
2019-05-21T14:09:22.785Z,77.82
2019-05-21T14:11:52.995Z,77.54
2019-05-21T14:14:23.180Z,77.54
2019-05-21T14:16:58.098Z,77.00
2019-05-21T14:19:28.968Z,76.71
2019-05-21T14:22:00.429Z,78.01
2019-05-21T14:24:44.221Z,77.97
2019-05-21T14:27:12.695Z,77.97
2019-05-21T14:29:40.103Z,77.96
2019-05-21T14:32:07.314Z,78.58
2019-05-21T14:35:01.161Z,79.12
2019-05-21T14:37:24.807Z,79.08
2019-05-21T14:39:53.446Z,79.87
2019-05-21T14:42:24.721Z,79.98
2019-05-21T14:45:00.342Z,81.06
2019-05-21T14:47:31.914Z,81.60
2019-05-21T14:50:23.694Z,82.20
2019-05-21T14:52:52.517Z,82.20
2019-05-21T14:55:24.813Z,83.01
2019-05-21T14:58:03.539Z,83.73
2019-05-21T15:00:38.618Z,83.90
2019-05-21T15:03:29.385Z,83.63
2019-05-21T15:05:58.685Z,83.35
2019-05-21T15:08:28.365Z,83.73
2019-05-21T15:10:56.404Z,84.19
2019-05-21T15:13:24.733Z,84.34
2019-05-21T15:15:52.924Z,84.32
2019-05-21T15:18:24.024Z,84.48
2019-05-21T15:21:01.100Z,84.93
2019-05-21T15:23:40.696Z,84.91
2019-05-21T15:26:10.446Z,85.09
2019-05-21T15:28:52.436Z,84.54
2019-05-21T15:35:10.054Z,85.40
2019-05-21T15:37:37.334Z,85.52
2019-05-21T15:40:05.094Z,85.29
2019-05-21T15:42:33.916Z,85.10
2019-05-21T15:45:01.659Z,84.72
2019-05-21T15:47:29.521Z,84.70
2019-05-21T15:49:56.734Z,84.16
2019-05-21T15:52:27.004Z,84.22
2019-05-21T15:54:58.717Z,84.04
2019-05-21T15:57:26.527Z,83.83
2019-05-21T15:59:55.482Z,84.22
2019-05-21T16:02:54.003Z,84.15
2019-05-21T16:05:22.881Z,84.20
2019-05-21T16:07:50.105Z,83.96
2019-05-21T16:10:21.711Z,83.65
2019-05-21T16:12:57.090Z,83.68
2019-05-21T16:15:25.948Z,83.58
2019-05-21T16:17:55.269Z,83.78
2019-05-21T16:20:22.465Z,83.86
2019-05-21T16:22:49.949Z,83.70
2019-05-21T16:25:17.181Z,83.72
2019-05-21T16:27:48.289Z,83.32
2019-05-21T16:30:15.697Z,83.56
2019-05-21T16:32:42.961Z,82.86
2019-05-21T16:35:10.913Z,83.06
2019-05-21T16:37:39.843Z,83.08
2019-05-21T16:40:10.045Z,82.99
2019-05-21T16:42:37.376Z,82.75
2019-05-21T16:45:08.213Z,83.35
2019-05-21T16:48:34.390Z,83.23
2019-05-21T16:51:01.688Z,83.03
2019-05-21T16:53:29.352Z,82.65
2019-05-21T16:55:57.530Z,82.28
2019-05-21T16:58:24.849Z,82.37
2019-05-21T17:00:52.503Z,82.72
2019-05-21T17:03:22.416Z,82.54
2019-05-21T17:05:51.050Z,82.80
2019-05-21T17:08:18.211Z,82.97
2019-05-21T17:10:45.302Z,82.52
2019-05-21T17:13:15.009Z,82.91
2019-05-21T17:15:44.145Z,82.47
2019-05-21T17:18:14.871Z,82.61
2019-05-21T17:20:48.651Z,82.51
2019-05-21T17:23:18.395Z,82.48
2019-05-21T17:25:50.064Z,82.17
2019-05-21T17:28:20.443Z,82.47
2019-05-21T17:30:51.827Z,81.99
2019-05-21T17:33:22.006Z,81.99
2019-05-21T17:35:52.295Z,82.26
2019-05-21T17:38:24.485Z,82.40
2019-05-21T17:40:53.961Z,82.25
2019-05-21T17:43:21.248Z,81.83
2019-05-21T17:45:48.338Z,82.27
2019-05-21T17:48:15.499Z,81.86
2019-05-21T17:50:42.996Z,81.84
2019-05-21T17:53:13.259Z,81.48
2019-05-21T17:55:40.502Z,81.24
2019-05-21T17:58:09.063Z,81.41
2019-05-21T18:00:54.989Z,80.83
2019-05-21T18:03:39.564Z,81.27
2019-05-21T18:06:08.154Z,81.43
2019-05-21T18:08:41.174Z,81.16
2019-05-21T18:11:08.742Z,81.29
2019-05-21T18:13:41.728Z,80.88
2019-05-21T18:16:13.897Z,81.01
2019-05-21T18:18:45.566Z,81.41
2019-05-21T18:21:13.711Z,81.24
2019-05-21T18:23:45.449Z,81.37
2019-05-21T18:26:23.727Z,81.25
2019-05-21T18:28:54.051Z,81.26
2019-05-21T18:31:23.659Z,81.55
2019-05-21T18:33:56.692Z,81.46
2019-05-21T18:36:31.563Z,81.10
2019-05-21T18:38:58.837Z,81.64
2019-05-21T18:41:30.730Z,81.37
2019-05-21T18:43:59.070Z,81.59
2019-05-21T18:46:27.299Z,81.82
2019-05-21T18:48:54.549Z,81.53
2019-05-21T18:51:22.558Z,81.75
2019-05-21T18:53:49.879Z,81.76
2019-05-21T18:56:17.251Z,81.45
2019-05-21T18:58:44.788Z,81.75
2019-05-21T19:01:14.868Z,81.55
2019-05-21T19:03:42.224Z,81.63
2019-05-21T19:06:11.760Z,81.56
2019-05-21T19:08:42.070Z,81.30
2019-05-21T19:11:32.883Z,81.39
2019-05-21T19:14:08.976Z,81.29
2019-05-21T19:16:40.321Z,81.44
2019-05-21T19:19:09.290Z,81.44
2019-05-21T19:21:39.615Z,81.55
2019-05-21T19:24:07.298Z,81.06
2019-05-21T19:26:40.148Z,81.11
2019-05-21T19:29:11.582Z,81.08
2019-05-21T19:31:38.665Z,81.01
2019-05-21T19:34:05.933Z,81.28
2019-05-21T19:36:33.072Z,81.44
2019-05-21T19:39:00.846Z,81.58
2019-05-21T19:41:33.087Z,81.99
2019-05-21T19:44:02.603Z,82.10
2019-05-21T19:46:51.195Z,82.64
2019-05-21T19:49:33.105Z,82.78
2019-05-21T19:52:05.937Z,83.02
2019-05-21T19:54:50.171Z,83.21
2019-05-21T19:57:24.519Z,83.32
2019-05-21T19:59:59.519Z,83.28
2019-05-21T20:02:40.657Z,83.54
2019-05-21T20:05:14.541Z,83.30
2019-05-21T20:07:43.360Z,83.53
2019-05-21T20:10:13.601Z,83.17
2019-05-21T20:12:41.718Z,83.02
2019-05-21T20:15:11.368Z,83.38
2019-05-21T20:17:40.294Z,83.67
2019-05-21T20:20:09.559Z,83.32
2019-05-21T20:22:37.658Z,83.16
2019-05-21T20:25:05.379Z,83.30
2019-05-21T20:27:32.598Z,83.29
2019-05-21T20:30:12.161Z,83.08
2019-05-21T20:32:35.955Z,82.98
2019-05-21T20:35:06.520Z,83.11
2019-05-21T20:37:38.563Z,83.46
2019-05-21T20:40:08.634Z,83.46
2019-05-21T20:42:37.350Z,82.96
2019-05-21T20:45:06.944Z,83.28
2019-05-21T20:47:34.506Z,83.60
2019-05-21T20:50:05.333Z,83.67
2019-05-21T20:52:35.345Z,83.93
2019-05-21T20:55:02.940Z,83.99
2019-05-21T20:57:31.662Z,84.19
2019-05-21T20:59:58.826Z,84.34
2019-05-21T21:02:27.567Z,84.30
2019-05-21T21:08:06.195Z,84.41
2019-05-21T21:10:33.257Z,84.44
2019-05-21T21:13:01.024Z,84.60
2019-05-21T21:15:28.293Z,84.48
2019-05-21T21:17:55.451Z,84.33
2019-05-21T21:20:22.614Z,84.33
2019-05-21T21:22:49.843Z,84.12
2019-05-21T21:25:21.018Z,84.07
2019-05-21T21:27:48.433Z,83.91
2019-05-21T21:30:15.690Z,83.69
2019-05-21T21:32:43.630Z,83.63
2019-05-21T21:35:11.746Z,83.74
2019-05-21T21:37:38.848Z,83.29
2019-05-21T21:40:08.902Z,83.36
2019-05-21T21:42:36.162Z,83.35
2019-05-21T21:45:03.617Z,82.65
2019-05-21T21:47:31.193Z,82.28
2019-05-21T21:49:58.856Z,81.94
2019-05-21T21:52:29.895Z,81.22
2019-05-21T21:54:59.203Z,80.61
2019-05-21T21:57:26.524Z,81.68
2019-05-21T21:59:55.571Z,81.98
2019-05-21T22:02:30.205Z,82.42
2019-05-21T22:04:58.103Z,82.48
2019-05-21T22:07:26.927Z,82.38
2019-05-21T22:09:54.961Z,82.52
2019-05-21T22:12:24.487Z,82.46
2019-05-21T22:14:58.205Z,82.20
2019-05-21T22:17:25.420Z,82.17
2019-05-21T22:19:52.737Z,81.52
2019-05-21T22:22:20.231Z,80.88
2019-05-21T22:24:48.775Z,80.06
2019-05-21T22:27:18.597Z,79.76
2019-05-21T22:29:46.887Z,79.78
2019-05-21T22:32:16.658Z,80.05
2019-05-21T22:34:42.968Z,79.88
2019-05-21T22:37:14.543Z,80.21
2019-05-21T22:39:43.731Z,79.96
2019-05-21T22:42:13.438Z,80.50
2019-05-21T22:44:43.413Z,80.67
2019-05-21T22:47:11.657Z,80.64
2019-05-21T22:49:38.801Z,80.00
2019-05-21T22:52:06.270Z,79.43
2019-05-21T22:54:33.423Z,79.05
2019-05-21T22:57:00.674Z,78.80
2019-05-21T22:59:27.806Z,79.23
2019-05-21T23:01:57.447Z,79.51
2019-05-21T23:04:24.681Z,78.93
2019-05-21T23:06:54.101Z,78.86
2019-05-21T23:09:21.552Z,78.72
2019-05-21T23:11:48.843Z,78.79
2019-05-21T23:14:15.973Z,77.97
2019-05-21T23:16:49.897Z,78.11
2019-05-21T23:19:24.240Z,77.88
2019-05-21T23:21:57.546Z,78.37
2019-05-21T23:24:25.364Z,79.46
2019-05-21T23:26:53.088Z,79.65
2019-05-21T23:29:20.558Z,79.56
2019-05-21T23:31:48.850Z,78.85
2019-05-21T23:34:17.929Z,77.99
2019-05-21T23:36:47.033Z,78.03
2019-05-21T23:39:20.509Z,78.89
2019-05-21T23:41:48.213Z,78.89
2019-05-21T23:44:16.233Z,79.47
2019-05-21T23:46:43.882Z,79.35
2019-05-21T23:49:12.124Z,79.43
2019-05-21T23:51:39.423Z,79.75
2019-05-21T23:54:06.889Z,80.11
2019-05-21T23:56:34.043Z,80.15
2019-05-21T23:59:01.300Z,80.07
